sensor_id;sensor_type;location;lat;lon;timestamp;P1;durP1;ratioP1;P2;durP2;ratioP2
12228;SDS011;6177;52.402;9.800;2023-05-10T00:00:11;2.80;;;2.60;;
12228;SDS011;6177;52.402;9.800;2023-05-10T00:02:40;2.97;;;2.70;;
12228;SDS011;6177;52.402;9.800;2023-05-10T00:05:05;4.32;;;2.63;;
12228;SDS011;6177;52.402;9.800;2023-05-10T00:07:31;3.05;;;2.85;;
12228;SDS011;6177;52.402;9.800;2023-05-10T00:09:57;4.25;;;2.45;;
12228;SDS011;6177;52.402;9.800;2023-05-10T00:12:22;3.08;;;2.83;;
12228;SDS011;6177;52.402;9.800;2023-05-10T00:14:48;2.90;;;2.67;;
12228;SDS011;6177;52.402;9.800;2023-05-10T00:17:14;3.00;;;2.53;;
12228;SDS011;6177;52.402;9.800;2023-05-10T00:19:39;2.90;;;2.65;;
12228;SDS011;6177;52.402;9.800;2023-05-10T00:22:05;3.38;;;2.85;;
12228;SDS011;6177;52.402;9.800;2023-05-10T00:24:30;2.67;;;2.58;;
12228;SDS011;6177;52.402;9.800;2023-05-10T00:26:55;6.13;;;3.00;;
12228;SDS011;6177;52.402;9.800;2023-05-10T00:29:21;3.83;;;2.50;;
12228;SDS011;6177;52.402;9.800;2023-05-10T00:31:46;2.83;;;2.58;;
12228;SDS011;6177;52.402;9.800;2023-05-10T00:34:12;2.75;;;2.55;;
12228;SDS011;6177;52.402;9.800;2023-05-10T00:36:37;5.47;;;2.53;;
12228;SDS011;6177;52.402;9.800;2023-05-10T00:39:03;3.90;;;2.83;;
12228;SDS011;6177;52.402;9.800;2023-05-10T00:41:29;4.63;;;3.03;;
12228;SDS011;6177;52.402;9.800;2023-05-10T00:43:58;3.90;;;3.10;;
12228;SDS011;6177;52.402;9.800;2023-05-10T00:46:23;3.97;;;3.50;;
12228;SDS011;6177;52.402;9.800;2023-05-10T00:48:50;3.88;;;2.60;;
12228;SDS011;6177;52.402;9.800;2023-05-10T00:51:15;2.80;;;2.60;;
12228;SDS011;6177;52.402;9.800;2023-05-10T00:53:41;3.50;;;3.27;;
12228;SDS011;6177;52.402;9.800;2023-05-10T00:56:06;7.17;;;2.97;;
12228;SDS011;6177;52.402;9.800;2023-05-10T00:58:32;4.30;;;2.95;;
12228;SDS011;6177;52.402;9.800;2023-05-10T01:00:58;2.83;;;2.63;;
12228;SDS011;6177;52.402;9.800;2023-05-10T01:03:24;3.17;;;2.97;;
12228;SDS011;6177;52.402;9.800;2023-05-10T01:05:50;3.63;;;2.53;;
12228;SDS011;6177;52.402;9.800;2023-05-10T01:08:17;5.70;;;2.80;;
12228;SDS011;6177;52.402;9.800;2023-05-10T01:10:42;3.27;;;3.00;;
12228;SDS011;6177;52.402;9.800;2023-05-10T01:13:08;3.47;;;3.27;;
12228;SDS011;6177;52.402;9.800;2023-05-10T01:15:34;3.53;;;3.27;;
12228;SDS011;6177;52.402;9.800;2023-05-10T01:18:00;3.70;;;3.10;;
12228;SDS011;6177;52.402;9.800;2023-05-10T01:20:27;3.20;;;2.87;;
12228;SDS011;6177;52.402;9.800;2023-05-10T01:36:56;4.00;;;3.70;;
12228;SDS011;6177;52.402;9.800;2023-05-10T01:42:21;4.33;;;4.00;;
12228;SDS011;6177;52.402;9.800;2023-05-10T01:44:59;4.03;;;3.70;;
12228;SDS011;6177;52.402;9.800;2023-05-10T01:47:34;4.13;;;3.70;;
12228;SDS011;6177;52.402;9.800;2023-05-10T01:50:03;4.00;;;3.33;;
12228;SDS011;6177;52.402;9.800;2023-05-10T01:52:30;4.77;;;3.70;;
12228;SDS011;6177;52.402;9.800;2023-05-10T01:55:02;4.60;;;4.23;;
12228;SDS011;6177;52.402;9.800;2023-05-10T01:57:32;3.80;;;3.60;;
12228;SDS011;6177;52.402;9.800;2023-05-10T01:59:59;4.40;;;4.00;;
12228;SDS011;6177;52.402;9.800;2023-05-10T02:02:40;3.50;;;3.40;;
12228;SDS011;6177;52.402;9.800;2023-05-10T02:05:07;4.70;;;4.20;;
12228;SDS011;6177;52.402;9.800;2023-05-10T02:07:36;4.53;;;4.13;;
12228;SDS011;6177;52.402;9.800;2023-05-10T02:10:02;4.30;;;3.90;;
12228;SDS011;6177;52.402;9.800;2023-05-10T02:12:29;4.53;;;4.00;;
12228;SDS011;6177;52.402;9.800;2023-05-10T02:14:56;3.97;;;3.67;;
12228;SDS011;6177;52.402;9.800;2023-05-10T02:17:23;5.27;;;4.00;;
12228;SDS011;6177;52.402;9.800;2023-05-10T02:19:49;4.50;;;3.77;;
12228;SDS011;6177;52.402;9.800;2023-05-10T02:22:17;6.03;;;3.93;;
12228;SDS011;6177;52.402;9.800;2023-05-10T02:24:43;7.87;;;3.90;;
12228;SDS011;6177;52.402;9.800;2023-05-10T02:27:09;4.27;;;3.90;;
12228;SDS011;6177;52.402;9.800;2023-05-10T02:29:35;4.20;;;3.80;;
12228;SDS011;6177;52.402;9.800;2023-05-10T02:32:01;4.90;;;4.30;;
12228;SDS011;6177;52.402;9.800;2023-05-10T02:34:27;5.43;;;4.30;;
12228;SDS011;6177;52.402;9.800;2023-05-10T02:36:53;4.20;;;3.77;;
12228;SDS011;6177;52.402;9.800;2023-05-10T02:39:20;4.77;;;4.33;;
12228;SDS011;6177;52.402;9.800;2023-05-10T02:41:46;4.83;;;4.20;;
12228;SDS011;6177;52.402;9.800;2023-05-10T02:44:19;7.33;;;4.30;;
12228;SDS011;6177;52.402;9.800;2023-05-10T02:46:46;6.60;;;4.40;;
12228;SDS011;6177;52.402;9.800;2023-05-10T02:49:12;4.57;;;4.23;;
12228;SDS011;6177;52.402;9.800;2023-05-10T02:51:42;6.77;;;4.80;;
12228;SDS011;6177;52.402;9.800;2023-05-10T02:54:11;4.97;;;4.57;;
12228;SDS011;6177;52.402;9.800;2023-05-10T02:56:40;5.60;;;4.23;;
12228;SDS011;6177;52.402;9.800;2023-05-10T02:59:08;4.93;;;4.43;;
12228;SDS011;6177;52.402;9.800;2023-05-10T03:01:33;5.37;;;4.17;;
12228;SDS011;6177;52.402;9.800;2023-05-10T03:03:59;4.90;;;4.50;;
12228;SDS011;6177;52.402;9.800;2023-05-10T03:06:25;4.80;;;4.40;;
12228;SDS011;6177;52.402;9.800;2023-05-10T03:08:51;4.77;;;4.43;;
12228;SDS011;6177;52.402;9.800;2023-05-10T03:14:25;5.03;;;4.73;;
12228;SDS011;6177;52.402;9.800;2023-05-10T03:16:58;5.17;;;4.83;;
12228;SDS011;6177;52.402;9.800;2023-05-10T03:19:30;5.97;;;5.53;;
12228;SDS011;6177;52.402;9.800;2023-05-10T03:22:02;6.23;;;5.10;;
12228;SDS011;6177;52.402;9.800;2023-05-10T03:24:32;5.13;;;4.53;;
12228;SDS011;6177;52.402;9.800;2023-05-10T03:26:59;6.10;;;5.47;;
12228;SDS011;6177;52.402;9.800;2023-05-10T03:29:28;6.27;;;4.67;;
12228;SDS011;6177;52.402;9.800;2023-05-10T03:31:57;5.47;;;4.97;;
12228;SDS011;6177;52.402;9.800;2023-05-10T03:34:24;5.33;;;4.90;;
12228;SDS011;6177;52.402;9.800;2023-05-10T03:36:50;5.37;;;4.90;;
12228;SDS011;6177;52.402;9.800;2023-05-10T03:39:16;5.43;;;5.03;;
12228;SDS011;6177;52.402;9.800;2023-05-10T03:41:47;5.73;;;5.30;;
12228;SDS011;6177;52.402;9.800;2023-05-10T03:44:13;6.10;;;5.70;;
12228;SDS011;6177;52.402;9.800;2023-05-10T03:46:38;5.87;;;5.30;;
12228;SDS011;6177;52.402;9.800;2023-05-10T03:49:04;6.10;;;5.60;;
12228;SDS011;6177;52.402;9.800;2023-05-10T03:51:29;5.50;;;5.20;;
12228;SDS011;6177;52.402;9.800;2023-05-10T03:53:56;5.63;;;5.17;;
12228;SDS011;6177;52.402;9.800;2023-05-10T03:56:22;5.97;;;5.40;;
12228;SDS011;6177;52.402;9.800;2023-05-10T03:58:47;6.00;;;5.60;;
12228;SDS011;6177;52.402;9.800;2023-05-10T04:01:13;6.07;;;5.23;;
12228;SDS011;6177;52.402;9.800;2023-05-10T04:03:38;6.43;;;5.80;;
12228;SDS011;6177;52.402;9.800;2023-05-10T04:06:04;5.60;;;5.20;;
12228;SDS011;6177;52.402;9.800;2023-05-10T04:08:31;6.23;;;5.83;;
12228;SDS011;6177;52.402;9.800;2023-05-10T04:11:06;6.57;;;5.77;;
12228;SDS011;6177;52.402;9.800;2023-05-10T04:13:33;6.47;;;5.97;;
12228;SDS011;6177;52.402;9.800;2023-05-10T04:15:58;6.43;;;5.90;;
12228;SDS011;6177;52.402;9.800;2023-05-10T04:18:24;6.70;;;6.17;;
12228;SDS011;6177;52.402;9.800;2023-05-10T04:20:50;5.83;;;5.50;;
12228;SDS011;6177;52.402;9.800;2023-05-10T04:23:15;6.53;;;6.07;;
12228;SDS011;6177;52.402;9.800;2023-05-10T04:25:41;6.03;;;5.67;;
12228;SDS011;6177;52.402;9.800;2023-05-10T04:28:07;6.90;;;6.20;;
12228;SDS011;6177;52.402;9.800;2023-05-10T04:30:33;7.40;;;6.70;;
12228;SDS011;6177;52.402;9.800;2023-05-10T04:32:59;7.13;;;6.30;;
12228;SDS011;6177;52.402;9.800;2023-05-10T04:35:25;6.43;;;5.97;;
12228;SDS011;6177;52.402;9.800;2023-05-10T04:37:50;7.40;;;6.80;;
12228;SDS011;6177;52.402;9.800;2023-05-10T04:40:16;7.20;;;6.50;;
12228;SDS011;6177;52.402;9.800;2023-05-10T04:42:41;7.43;;;5.70;;
12228;SDS011;6177;52.402;9.800;2023-05-10T04:45:07;8.40;;;6.67;;
12228;SDS011;6177;52.402;9.800;2023-05-10T04:47:32;7.40;;;6.80;;
12228;SDS011;6177;52.402;9.800;2023-05-10T04:49:58;7.50;;;6.80;;
12228;SDS011;6177;52.402;9.800;2023-05-10T04:52:23;7.17;;;6.50;;
12228;SDS011;6177;52.402;9.800;2023-05-10T04:54:49;8.10;;;7.20;;
12228;SDS011;6177;52.402;9.800;2023-05-10T04:57:14;6.73;;;6.07;;
12228;SDS011;6177;52.402;9.800;2023-05-10T04:59:40;8.40;;;6.60;;
12228;SDS011;6177;52.402;9.800;2023-05-10T05:02:05;6.87;;;6.17;;
12228;SDS011;6177;52.402;9.800;2023-05-10T05:04:31;8.30;;;7.20;;
12228;SDS011;6177;52.402;9.800;2023-05-10T05:06:57;7.23;;;6.47;;
12228;SDS011;6177;52.402;9.800;2023-05-10T05:09:22;6.53;;;6.03;;
12228;SDS011;6177;52.402;9.800;2023-05-10T05:11:48;7.53;;;7.00;;
12228;SDS011;6177;52.402;9.800;2023-05-10T05:14:13;6.93;;;6.43;;
12228;SDS011;6177;52.402;9.800;2023-05-10T05:16:39;7.13;;;6.50;;
12228;SDS011;6177;52.402;9.800;2023-05-10T05:19:05;7.40;;;6.53;;
12228;SDS011;6177;52.402;9.800;2023-05-10T05:21:30;7.20;;;6.70;;
12228;SDS011;6177;52.402;9.800;2023-05-10T05:23:57;6.87;;;6.47;;
12228;SDS011;6177;52.402;9.800;2023-05-10T05:26:23;7.53;;;6.83;;
12228;SDS011;6177;52.402;9.800;2023-05-10T05:28:48;7.23;;;6.63;;
12228;SDS011;6177;52.402;9.800;2023-05-10T05:31:17;7.37;;;6.67;;
12228;SDS011;6177;52.402;9.800;2023-05-10T05:33:43;6.93;;;6.33;;
12228;SDS011;6177;52.402;9.800;2023-05-10T05:36:08;7.57;;;7.17;;
12228;SDS011;6177;52.402;9.800;2023-05-10T05:38:34;7.83;;;7.07;;
12228;SDS011;6177;52.402;9.800;2023-05-10T05:40:59;7.50;;;6.70;;
12228;SDS011;6177;52.402;9.800;2023-05-10T05:43:25;7.20;;;6.80;;
12228;SDS011;6177;52.402;9.800;2023-05-10T05:45:54;7.07;;;6.63;;
12228;SDS011;6177;52.402;9.800;2023-05-10T05:48:21;7.10;;;6.47;;
12228;SDS011;6177;52.402;9.800;2023-05-10T05:50:46;7.57;;;6.87;;
12228;SDS011;6177;52.402;9.800;2023-05-10T05:53:12;7.80;;;7.20;;
12228;SDS011;6177;52.402;9.800;2023-05-10T05:55:37;7.53;;;7.00;;
12228;SDS011;6177;52.402;9.800;2023-05-10T05:58:03;7.80;;;7.20;;
12228;SDS011;6177;52.402;9.800;2023-05-10T06:00:29;7.20;;;6.70;;
12228;SDS011;6177;52.402;9.800;2023-05-10T06:02:55;7.50;;;7.00;;
12228;SDS011;6177;52.402;9.800;2023-05-10T06:05:20;7.17;;;6.77;;
12228;SDS011;6177;52.402;9.800;2023-05-10T06:07:46;6.67;;;6.03;;
12228;SDS011;6177;52.402;9.800;2023-05-10T06:10:11;7.43;;;6.93;;
12228;SDS011;6177;52.402;9.800;2023-05-10T06:12:37;8.33;;;7.47;;
12228;SDS011;6177;52.402;9.800;2023-05-10T06:15:03;6.93;;;6.33;;
12228;SDS011;6177;52.402;9.800;2023-05-10T06:17:29;6.70;;;6.30;;
12228;SDS011;6177;52.402;9.800;2023-05-10T06:19:55;7.93;;;6.97;;
12228;SDS011;6177;52.402;9.800;2023-05-10T06:22:21;7.30;;;6.90;;
12228;SDS011;6177;52.402;9.800;2023-05-10T06:24:48;6.87;;;6.43;;
12228;SDS011;6177;52.402;9.800;2023-05-10T06:27:13;7.32;;;6.82;;
12228;SDS011;6177;52.402;9.800;2023-05-10T06:29:39;6.85;;;6.30;;
12228;SDS011;6177;52.402;9.800;2023-05-10T06:32:04;7.57;;;6.90;;
12228;SDS011;6177;52.402;9.800;2023-05-10T06:34:30;7.80;;;6.80;;
12228;SDS011;6177;52.402;9.800;2023-05-10T06:36:56;7.33;;;6.93;;
12228;SDS011;6177;52.402;9.800;2023-05-10T06:39:22;7.68;;;6.82;;
12228;SDS011;6177;52.402;9.800;2023-05-10T06:41:47;7.82;;;7.15;;
12228;SDS011;6177;52.402;9.800;2023-05-10T06:44:13;7.67;;;7.27;;
12228;SDS011;6177;52.402;9.800;2023-05-10T06:46:38;8.00;;;7.40;;
12228;SDS011;6177;52.402;9.800;2023-05-10T06:49:04;6.65;;;6.30;;
12228;SDS011;6177;52.402;9.800;2023-05-10T06:51:29;7.70;;;7.10;;
12228;SDS011;6177;52.402;9.800;2023-05-10T06:53:55;7.37;;;6.70;;
12228;SDS011;6177;52.402;9.800;2023-05-10T06:56:21;6.50;;;6.20;;
12228;SDS011;6177;52.402;9.800;2023-05-10T06:58:47;7.80;;;7.30;;
12228;SDS011;6177;52.402;9.800;2023-05-10T07:01:13;7.18;;;6.57;;
12228;SDS011;6177;52.402;9.800;2023-05-10T07:03:38;7.10;;;6.70;;
12228;SDS011;6177;52.402;9.800;2023-05-10T07:06:04;6.50;;;6.10;;
12228;SDS011;6177;52.402;9.800;2023-05-10T07:08:30;7.53;;;6.87;;
12228;SDS011;6177;52.402;9.800;2023-05-10T07:11:00;6.47;;;6.07;;
12228;SDS011;6177;52.402;9.800;2023-05-10T07:13:29;6.78;;;6.38;;
12228;SDS011;6177;52.402;9.800;2023-05-10T07:15:58;7.28;;;6.72;;
12228;SDS011;6177;52.402;9.800;2023-05-10T07:18:24;6.80;;;6.40;;
12228;SDS011;6177;52.402;9.800;2023-05-10T07:20:50;5.88;;;5.47;;
12228;SDS011;6177;52.402;9.800;2023-05-10T07:23:16;6.57;;;5.97;;
12228;SDS011;6177;52.402;9.800;2023-05-10T07:25:44;6.30;;;5.80;;
12228;SDS011;6177;52.402;9.800;2023-05-10T07:28:11;5.28;;;4.97;;
12228;SDS011;6177;52.402;9.800;2023-05-10T07:30:37;6.00;;;5.60;;
12228;SDS011;6177;52.402;9.800;2023-05-10T07:33:02;6.38;;;5.88;;
12228;SDS011;6177;52.402;9.800;2023-05-10T07:35:28;6.30;;;5.90;;
12228;SDS011;6177;52.402;9.800;2023-05-10T07:37:53;6.57;;;6.07;;
12228;SDS011;6177;52.402;9.800;2023-05-10T07:40:19;5.93;;;5.53;;
12228;SDS011;6177;52.402;9.800;2023-05-10T07:42:45;6.50;;;6.10;;
12228;SDS011;6177;52.402;9.800;2023-05-10T07:45:10;6.75;;;6.28;;
12228;SDS011;6177;52.402;9.800;2023-05-10T07:47:36;6.25;;;5.95;;
12228;SDS011;6177;52.402;9.800;2023-05-10T07:50:01;6.50;;;6.10;;
12228;SDS011;6177;52.402;9.800;2023-05-10T07:52:27;6.70;;;6.30;;
12228;SDS011;6177;52.402;9.800;2023-05-10T07:54:52;7.40;;;6.90;;
12228;SDS011;6177;52.402;9.800;2023-05-10T07:57:18;7.13;;;6.73;;
12228;SDS011;6177;52.402;9.800;2023-05-10T07:59:44;6.68;;;6.38;;
12228;SDS011;6177;52.402;9.800;2023-05-10T08:02:10;7.30;;;6.80;;
12228;SDS011;6177;52.402;9.800;2023-05-10T08:04:35;7.10;;;6.60;;
12228;SDS011;6177;52.402;9.800;2023-05-10T08:07:01;7.17;;;6.67;;
12228;SDS011;6177;52.402;9.800;2023-05-10T08:09:26;5.73;;;5.43;;
12228;SDS011;6177;52.402;9.800;2023-05-10T08:11:52;6.37;;;5.87;;
12228;SDS011;6177;52.402;9.800;2023-05-10T08:14:17;5.13;;;4.93;;
12228;SDS011;6177;52.402;9.800;2023-05-10T08:16:43;5.30;;;5.00;;
12228;SDS011;6177;52.402;9.800;2023-05-10T08:19:08;5.17;;;4.97;;
12228;SDS011;6177;52.402;9.800;2023-05-10T08:21:34;5.53;;;5.30;;
12228;SDS011;6177;52.402;9.800;2023-05-10T08:24:00;4.57;;;4.47;;
12228;SDS011;6177;52.402;9.800;2023-05-10T08:26:26;4.70;;;4.40;;
12228;SDS011;6177;52.402;9.800;2023-05-10T08:28:52;4.70;;;4.60;;
12228;SDS011;6177;52.402;9.800;2023-05-10T08:31:17;4.50;;;4.20;;
12228;SDS011;6177;52.402;9.800;2023-05-10T08:33:43;3.93;;;3.83;;
12228;SDS011;6177;52.402;9.800;2023-05-10T08:36:09;3.37;;;3.27;;
12228;SDS011;6177;52.402;9.800;2023-05-10T08:38:34;5.50;;;3.00;;
12228;SDS011;6177;52.402;9.800;2023-05-10T08:41:00;2.97;;;2.87;;
12228;SDS011;6177;52.402;9.800;2023-05-10T08:43:27;2.57;;;2.47;;
12228;SDS011;6177;52.402;9.800;2023-05-10T08:45:54;2.43;;;2.43;;
12228;SDS011;6177;52.402;9.800;2023-05-10T08:48:21;2.37;;;2.27;;
12228;SDS011;6177;52.402;9.800;2023-05-10T08:50:48;2.03;;;1.93;;
12228;SDS011;6177;52.402;9.800;2023-05-10T08:53:14;2.30;;;2.20;;
12228;SDS011;6177;52.402;9.800;2023-05-10T08:55:40;1.93;;;1.93;;
12228;SDS011;6177;52.402;9.800;2023-05-10T08:58:07;2.27;;;2.27;;
12228;SDS011;6177;52.402;9.800;2023-05-10T09:00:33;2.20;;;2.10;;
12228;SDS011;6177;52.402;9.800;2023-05-10T09:02:59;2.00;;;2.00;;
12228;SDS011;6177;52.402;9.800;2023-05-10T09:05:25;2.25;;;2.25;;
12228;SDS011;6177;52.402;9.800;2023-05-10T09:07:51;1.90;;;1.90;;
12228;SDS011;6177;52.402;9.800;2023-05-10T09:10:16;1.93;;;1.93;;
12228;SDS011;6177;52.402;9.800;2023-05-10T09:12:42;2.10;;;2.00;;
12228;SDS011;6177;52.402;9.800;2023-05-10T09:15:12;2.00;;;1.90;;
12228;SDS011;6177;52.402;9.800;2023-05-10T09:17:40;2.20;;;2.20;;
12228;SDS011;6177;52.402;9.800;2023-05-10T09:20:06;2.07;;;2.07;;
12228;SDS011;6177;52.402;9.800;2023-05-10T09:22:32;2.00;;;1.97;;
12228;SDS011;6177;52.402;9.800;2023-05-10T09:27:30;2.63;;;2.60;;
12228;SDS011;6177;52.402;9.800;2023-05-10T09:29:55;2.67;;;2.67;;
12228;SDS011;6177;52.402;9.800;2023-05-10T09:32:21;2.57;;;2.53;;
12228;SDS011;6177;52.402;9.800;2023-05-10T09:34:46;2.93;;;2.83;;
12228;SDS011;6177;52.402;9.800;2023-05-10T09:37:14;2.47;;;2.47;;
12228;SDS011;6177;52.402;9.800;2023-05-10T09:39:40;3.10;;;3.00;;
12228;SDS011;6177;52.402;9.800;2023-05-10T09:42:09;3.13;;;3.03;;
12228;SDS011;6177;52.402;9.800;2023-05-10T09:44:35;2.83;;;2.70;;
12228;SDS011;6177;52.402;9.800;2023-05-10T09:47:01;2.77;;;2.67;;
12228;SDS011;6177;52.402;9.800;2023-05-10T09:49:27;2.33;;;2.30;;
12228;SDS011;6177;52.402;9.800;2023-05-10T09:51:59;3.03;;;2.92;;
12228;SDS011;6177;52.402;9.800;2023-05-10T09:54:26;2.70;;;2.60;;
12228;SDS011;6177;52.402;9.800;2023-05-10T09:56:52;2.67;;;2.67;;
12228;SDS011;6177;52.402;9.800;2023-05-10T09:59:17;2.55;;;2.50;;
12228;SDS011;6177;52.402;9.800;2023-05-10T10:01:46;2.95;;;2.85;;
12228;SDS011;6177;52.402;9.800;2023-05-10T10:04:14;2.70;;;2.70;;
12228;SDS011;6177;52.402;9.800;2023-05-10T10:06:40;2.13;;;2.13;;
12228;SDS011;6177;52.402;9.800;2023-05-10T10:09:06;2.60;;;2.50;;
12228;SDS011;6177;52.402;9.800;2023-05-10T10:11:33;2.70;;;2.70;;
12228;SDS011;6177;52.402;9.800;2023-05-10T10:14:00;2.80;;;2.58;;
12228;SDS011;6177;52.402;9.800;2023-05-10T10:16:26;2.10;;;2.10;;
12228;SDS011;6177;52.402;9.800;2023-05-10T10:18:54;2.22;;;2.17;;
12228;SDS011;6177;52.402;9.800;2023-05-10T10:21:19;1.98;;;1.98;;
12228;SDS011;6177;52.402;9.800;2023-05-10T10:23:45;2.25;;;2.25;;
12228;SDS011;6177;52.402;9.800;2023-05-10T10:26:11;2.20;;;2.10;;
12228;SDS011;6177;52.402;9.800;2023-05-10T10:32:01;2.50;;;2.40;;
12228;SDS011;6177;52.402;9.800;2023-05-10T10:34:08;2.83;;;2.72;;
12228;SDS011;6177;52.402;9.800;2023-05-10T10:36:44;2.55;;;2.55;;
12228;SDS011;6177;52.402;9.800;2023-05-10T10:39:11;3.47;;;3.17;;
12228;SDS011;6177;52.402;9.800;2023-05-10T10:41:48;3.03;;;2.92;;
12228;SDS011;6177;52.402;9.800;2023-05-10T10:44:25;2.45;;;2.35;;
12228;SDS011;6177;52.402;9.800;2023-05-10T10:46:58;2.83;;;2.72;;
12228;SDS011;6177;52.402;9.800;2023-05-10T10:50:02;2.45;;;2.35;;
12228;SDS011;6177;52.402;9.800;2023-05-10T10:54:59;2.90;;;2.80;;
12228;SDS011;6177;52.402;9.800;2023-05-10T10:58:12;2.50;;;2.40;;
12228;SDS011;6177;52.402;9.800;2023-05-10T11:00:31;2.90;;;2.80;;
12228;SDS011;6177;52.402;9.800;2023-05-10T11:02:59;2.28;;;2.17;;
12228;SDS011;6177;52.402;9.800;2023-05-10T11:10:36;2.28;;;2.15;;
12228;SDS011;6177;52.402;9.800;2023-05-10T11:13:04;2.55;;;2.35;;
12228;SDS011;6177;52.402;9.800;2023-05-10T11:17:59;2.42;;;2.33;;
12228;SDS011;6177;52.402;9.800;2023-05-10T11:20:28;2.47;;;2.38;;
12228;SDS011;6177;52.402;9.800;2023-05-10T11:23:10;2.20;;;2.10;;
12228;SDS011;6177;52.402;9.800;2023-05-10T11:25:44;2.40;;;2.20;;
12228;SDS011;6177;52.402;9.800;2023-05-10T11:28:13;2.17;;;2.17;;
12228;SDS011;6177;52.402;9.800;2023-05-10T11:30:40;1.92;;;1.92;;
12228;SDS011;6177;52.402;9.800;2023-05-10T11:33:06;1.80;;;1.80;;
12228;SDS011;6177;52.402;9.800;2023-05-10T11:35:39;1.70;;;1.70;;
12228;SDS011;6177;52.402;9.800;2023-05-10T11:38:05;1.52;;;1.45;;
12228;SDS011;6177;52.402;9.800;2023-05-10T11:40:34;1.95;;;1.85;;
12228;SDS011;6177;52.402;9.800;2023-05-10T11:43:00;1.90;;;1.90;;
12228;SDS011;6177;52.402;9.800;2023-05-10T11:45:27;2.90;;;2.80;;
12228;SDS011;6177;52.402;9.800;2023-05-10T11:47:57;2.10;;;2.10;;
12228;SDS011;6177;52.402;9.800;2023-05-10T11:50:23;2.60;;;2.60;;
12228;SDS011;6177;52.402;9.800;2023-05-10T11:52:55;2.40;;;2.30;;
12228;SDS011;6177;52.402;9.800;2023-05-10T11:55:21;2.47;;;2.38;;
12228;SDS011;6177;52.402;9.800;2023-05-10T11:57:48;3.17;;;2.78;;
12228;SDS011;6177;52.402;9.800;2023-05-10T12:00:16;2.33;;;2.22;;
12228;SDS011;6177;52.402;9.800;2023-05-10T12:02:42;2.13;;;2.13;;
12228;SDS011;6177;52.402;9.800;2023-05-10T12:05:08;3.10;;;2.90;;
12228;SDS011;6177;52.402;9.800;2023-05-10T12:07:35;3.13;;;3.03;;
12228;SDS011;6177;52.402;9.800;2023-05-10T12:10:13;2.30;;;2.17;;
12228;SDS011;6177;52.402;9.800;2023-05-10T12:12:40;2.75;;;2.65;;
12228;SDS011;6177;52.402;9.800;2023-05-10T12:17:45;2.80;;;2.60;;
12228;SDS011;6177;52.402;9.800;2023-05-10T12:20:15;2.58;;;2.38;;
12228;SDS011;6177;52.402;9.800;2023-05-10T12:22:44;2.75;;;2.65;;
12228;SDS011;6177;52.402;9.800;2023-05-10T12:25:10;2.50;;;2.30;;
12228;SDS011;6177;52.402;9.800;2023-05-10T12:27:36;2.42;;;2.33;;
12228;SDS011;6177;52.402;9.800;2023-05-10T12:30:01;3.60;;;2.47;;
12228;SDS011;6177;52.402;9.800;2023-05-10T12:32:40;2.63;;;2.50;;
12228;SDS011;6177;52.402;9.800;2023-05-10T12:35:06;2.42;;;2.33;;
12228;SDS011;6177;52.402;9.800;2023-05-10T12:37:32;2.63;;;2.53;;
12228;SDS011;6177;52.402;9.800;2023-05-10T12:40:01;3.15;;;2.95;;
12228;SDS011;6177;52.402;9.800;2023-05-10T12:42:27;2.92;;;2.83;;
12228;SDS011;6177;52.402;9.800;2023-05-10T12:44:56;3.30;;;3.10;;
12228;SDS011;6177;52.402;9.800;2023-05-10T12:47:22;2.60;;;2.50;;
12228;SDS011;6177;52.402;9.800;2023-05-10T12:49:47;2.53;;;2.53;;
12228;SDS011;6177;52.402;9.800;2023-05-10T12:52:13;2.60;;;2.47;;
12228;SDS011;6177;52.402;9.800;2023-05-10T12:54:38;2.70;;;2.60;;
12228;SDS011;6177;52.402;9.800;2023-05-10T12:57:04;3.70;;;3.50;;
12228;SDS011;6177;52.402;9.800;2023-05-10T12:59:29;3.38;;;3.15;;
12228;SDS011;6177;52.402;9.800;2023-05-10T13:01:56;2.85;;;2.75;;
12228;SDS011;6177;52.402;9.800;2023-05-10T13:04:22;3.17;;;2.97;;
12228;SDS011;6177;52.402;9.800;2023-05-10T13:06:47;3.17;;;2.97;;
12228;SDS011;6177;52.402;9.800;2023-05-10T13:09:13;4.05;;;3.92;;
12228;SDS011;6177;52.402;9.800;2023-05-10T13:11:38;3.30;;;3.10;;
12228;SDS011;6177;52.402;9.800;2023-05-10T13:14:04;3.10;;;3.00;;
12228;SDS011;6177;52.402;9.800;2023-05-10T13:16:30;3.55;;;3.17;;
12228;SDS011;6177;52.402;9.800;2023-05-10T13:18:55;3.28;;;3.10;;
12228;SDS011;6177;52.402;9.800;2023-05-10T13:21:21;3.65;;;3.55;;
12228;SDS011;6177;52.402;9.800;2023-05-10T13:23:46;3.15;;;3.05;;
12228;SDS011;6177;52.402;9.800;2023-05-10T13:26:12;3.30;;;3.10;;
12228;SDS011;6177;52.402;9.800;2023-05-10T13:28:38;3.50;;;3.38;;
12228;SDS011;6177;52.402;9.800;2023-05-10T13:31:04;3.60;;;3.40;;
12228;SDS011;6177;52.402;9.800;2023-05-10T13:33:30;2.95;;;2.85;;
12228;SDS011;6177;52.402;9.800;2023-05-10T13:35:55;2.03;;;2.03;;
12228;SDS011;6177;52.402;9.800;2023-05-10T13:38:21;2.65;;;2.55;;
12228;SDS011;6177;52.402;9.800;2023-05-10T13:40:46;3.17;;;2.90;;
12228;SDS011;6177;52.402;9.800;2023-05-10T13:43:12;2.38;;;2.28;;
12228;SDS011;6177;52.402;9.800;2023-05-10T13:45:37;3.13;;;2.90;;
12228;SDS011;6177;52.402;9.800;2023-05-10T13:48:03;2.70;;;2.60;;
12228;SDS011;6177;52.402;9.800;2023-05-10T13:50:29;2.72;;;2.63;;
12228;SDS011;6177;52.402;9.800;2023-05-10T13:52:55;3.58;;;3.40;;
12228;SDS011;6177;52.402;9.800;2023-05-10T13:55:20;2.92;;;2.83;;
12228;SDS011;6177;52.402;9.800;2023-05-10T13:57:46;3.42;;;3.22;;
12228;SDS011;6177;52.402;9.800;2023-05-10T14:00:11;5.90;;;5.47;;
12228;SDS011;6177;52.402;9.800;2023-05-10T14:02:37;5.22;;;4.93;;
12228;SDS011;6177;52.402;9.800;2023-05-10T14:05:03;6.78;;;6.28;;
12228;SDS011;6177;52.402;9.800;2023-05-10T14:07:29;6.93;;;5.85;;
12228;SDS011;6177;52.402;9.800;2023-05-10T14:09:54;6.38;;;6.05;;
12228;SDS011;6177;52.402;9.800;2023-05-10T14:12:20;6.43;;;5.82;;
12228;SDS011;6177;52.402;9.800;2023-05-10T14:14:45;5.80;;;5.35;;
12228;SDS011;6177;52.402;9.800;2023-05-10T14:17:11;7.40;;;6.80;;
12228;SDS011;6177;52.402;9.800;2023-05-10T14:19:36;7.63;;;7.03;;
12228;SDS011;6177;52.402;9.800;2023-05-10T14:22:02;7.05;;;6.57;;
12228;SDS011;6177;52.402;9.800;2023-05-10T14:24:27;7.97;;;7.28;;
12228;SDS011;6177;52.402;9.800;2023-05-10T14:26:53;7.18;;;6.78;;
12228;SDS011;6177;52.402;9.800;2023-05-10T14:29:22;6.85;;;6.25;;
12228;SDS011;6177;52.402;9.800;2023-05-10T14:31:47;8.15;;;7.55;;
12228;SDS011;6177;52.402;9.800;2023-05-10T14:34:13;8.27;;;7.57;;
12228;SDS011;6177;52.402;9.800;2023-05-10T14:36:38;7.38;;;6.72;;
12228;SDS011;6177;52.402;9.800;2023-05-10T14:39:04;8.73;;;8.05;;
12228;SDS011;6177;52.402;9.800;2023-05-10T14:41:30;7.20;;;6.68;;
12228;SDS011;6177;52.402;9.800;2023-05-10T14:43:56;8.27;;;7.68;;
12228;SDS011;6177;52.402;9.800;2023-05-10T14:46:21;7.97;;;7.47;;
12228;SDS011;6177;52.402;9.800;2023-05-10T14:48:46;8.18;;;7.47;;
12228;SDS011;6177;52.402;9.800;2023-05-10T14:51:12;7.65;;;7.10;;
12228;SDS011;6177;52.402;9.800;2023-05-10T14:53:38;8.38;;;7.75;;
12228;SDS011;6177;52.402;9.800;2023-05-10T14:56:03;8.75;;;8.10;;
12228;SDS011;6177;52.402;9.800;2023-05-10T14:58:29;7.85;;;7.25;;
12228;SDS011;6177;52.402;9.800;2023-05-10T15:00:55;9.23;;;8.55;;
12228;SDS011;6177;52.402;9.800;2023-05-10T15:03:21;8.70;;;8.00;;
12228;SDS011;6177;52.402;9.800;2023-05-10T15:05:47;9.10;;;8.50;;
12228;SDS011;6177;52.402;9.800;2023-05-10T15:08:12;9.65;;;8.75;;
12228;SDS011;6177;52.402;9.800;2023-05-10T15:10:38;8.40;;;7.75;;
12228;SDS011;6177;52.402;9.800;2023-05-10T15:13:04;8.60;;;7.80;;
12228;SDS011;6177;52.402;9.800;2023-05-10T15:15:30;8.63;;;8.02;;
12228;SDS011;6177;52.402;9.800;2023-05-10T15:17:55;9.90;;;8.93;;
12228;SDS011;6177;52.402;9.800;2023-05-10T15:20:21;9.43;;;8.55;;
12228;SDS011;6177;52.402;9.800;2023-05-10T15:22:47;9.23;;;8.52;;
12228;SDS011;6177;52.402;9.800;2023-05-10T15:25:12;8.85;;;8.20;;
12228;SDS011;6177;52.402;9.800;2023-05-10T15:27:39;8.88;;;8.27;;
12228;SDS011;6177;52.402;9.800;2023-05-10T15:30:04;7.75;;;7.18;;
12228;SDS011;6177;52.402;9.800;2023-05-10T15:32:30;8.65;;;7.93;;
12228;SDS011;6177;52.402;9.800;2023-05-10T15:34:56;8.93;;;8.23;;